To NAV CANADA Home Page Login to a new session Search on AWWS site Feedback and Comments Disclaimer Vers la page française équivalente Tips FAQ What's new on the site To the Forecasts and Observations / NOTAM section To "File a Flight Plan" website Publications and other links Update of the User's profile FIC Telephone Numbers My Weather Data Folder Route Weather Data Regional Weather Data Local Weather Data To the Forecasts and Observations / NOTAM section
Request Generated 04/30/2017 at 05:00:03 UTC . Weather information available at that time is displayed.

METAR/TAF

LYNN LAKE/MB    (show WxCam)

METAR CYYL 300400Z AUTO 15005KT 9SM CLR 02/M07 A3008 RMK SLP208=
METAR CYYL 300300Z AUTO 15005KT 9SM CLR 04/M06 A3009 RMK SLP211=
METAR CYYL 300200Z AUTO 12004KT 9SM FEW110 06/M07 A3009 RMK SLP213=

TAF CYYL 300038Z 3001/3013 16007KT P6SM FEW090
RMK FCST BASED ON AUTO OBS. NXT FCST BY 300700Z=
Your time UTC time
Weather data provided by Environment Canada and NAV CANADA